Austwell, TX (77950)

8:50 AM CDT on September 19, 2014 (GMT -0500)
Near the bank of San Antonio river, 3 Miles West of McFadden | Change Station
CLOSE
Current Station
Personal Weather Station
Location: Victoria, TX
Elevation: 92 ft
Nearby Weather Stations

Elev 92 ft 28.55 °N, 97.06 °W | Updated 17 seconds ago

Clear
Clear
81.1 °F
Feels Like 90 °F
N
0.0
Wind Variable Wind from NNW
Gusts 0.0 mph

Today
High -- | Low -- °F
--% Chance of Precip.
Yesterday
High -- | Low -- °F
Precip. -- in
7:14 AM 7:27 PM
Waning Crescent, 19% visible
Pressure 29.82 in
Visibility 10.0 miles
Clouds Clear
Heat Index 90 °F
Dew Point 80 °F
Humidity 97%
Rainfall 0.00 in
Snow Depth Not available.
UV 0 out of 12
Pollen 6.30 out of 12
Air Quality Not available.
Flu Activity Not available.
METAR KRKP 191153Z AUTO 19003KT 10SM CLR 26/24 A2981 RMK AO2 SLP097 T02560239 10283 20256 58004

More Conditions Fewer Conditions

Pressure 29.82 in
Visibility 10.0 miles
Clouds Clear
Heat Index 90 °F
Dew Point 80 °F
Humidity 97%
Rainfall 0.00 in
Snow Depth Not available.
UV 0 out of 12
Pollen 6.30 out of 12
Air Quality Not available.
Flu Activity Not available.
METAR KRKP 191153Z AUTO 19003KT 10SM CLR 26/24 A2981 RMK AO2 SLP097 T02560239 10283 20256 58004

More Conditions Fewer Conditions

Nowcast | as of 7:00 am CDT on September 19, 2014

Through 7 am CDT...isolated showers will continue over the eastern sections of south Texas and over the Gulf waters from Baffin Bay to Port Oconnor. Light to moderate rain may occur at times. Accumulations over land will generally remain below a tenth of an inch.

×

10-Day Weather Forecast

Almanac

Astronomy

Sep. 19, 2014 Rise Set
Actual Time 7:14 AM CDT 7:27 PM CDT
Civil Twilight 6:51 AM CDT 7:51 PM CDT
Nautical Twilight 6:23 AM CDT 8:18 PM CDT
Astronomical Twilight 5:56 AM CDT 8:46 PM CDT
Moon 3:17 AM CDT 4:42 PM CDT
Length of Visible Light 13h 00m
Length of Day
12h 13m
Tomorrow will be 1m 40s shorter.
Waning Crescent, 19% of the Moon is Illuminated
Today
Waning Crescent
Sep 24
New
Oct 1
First Quarter
Oct 8
Full
Oct 15
Last Quarter

Today's Extremes

State Highs State Lows

Community

WunderPhotos

Upload Photos

1,754,608 photos uploaded!

WunderBlogs® & News

By Dr. Jeff Masters
Director of Meteorology, Weather Underground
By Kari Strenfel
Meteorologist, Weather Underground
By Christopher C. Burt
Weather Historian, Weather Underground
September 19, 2014
September 19, 2014
September 19, 2014

Nearby

Snow Depth

Station Depth Elevation
No new snow has been reported.

Earthquake Activity

City Distance Mag. Time & Date
No recent earthquake activity has been reported nearby.
Minimum magnitude displayed is 2.5.

Coastal Water Temperatures

Place Temperature
Rockport, TX 86.0 °F
Seadrift, TX 82.9 °F
Port Aransas, TX 84.9 °F

Nearby Weather Stations